sensor_id;sensor_type;location;lat;lon;timestamp;P1;durP1;ratioP1;P2;durP2;ratioP2
2159;SDS011;1086;51.610;6.928;2022-07-06T00:01:55;3.73;;;1.70;;
2159;SDS011;1086;51.610;6.928;2022-07-06T00:04:20;2.17;;;1.50;;
2159;SDS011;1086;51.610;6.928;2022-07-06T00:06:45;3.03;;;1.55;;
2159;SDS011;1086;51.610;6.928;2022-07-06T00:09:11;3.78;;;1.60;;
2159;SDS011;1086;51.610;6.928;2022-07-06T00:11:36;2.80;;;1.40;;
2159;SDS011;1086;51.610;6.928;2022-07-06T00:14:01;2.30;;;1.40;;
2159;SDS011;1086;51.610;6.928;2022-07-06T00:16:27;2.20;;;1.38;;
2159;SDS011;1086;51.610;6.928;2022-07-06T00:18:53;2.13;;;1.40;;
2159;SDS011;1086;51.610;6.928;2022-07-06T00:21:18;3.63;;;1.20;;
2159;SDS011;1086;51.610;6.928;2022-07-06T00:23:43;3.37;;;1.23;;
2159;SDS011;1086;51.610;6.928;2022-07-06T00:26:09;1.77;;;1.03;;
2159;SDS011;1086;51.610;6.928;2022-07-06T00:28:34;3.85;;;1.65;;
2159;SDS011;1086;51.610;6.928;2022-07-06T00:30:59;3.10;;;1.50;;
2159;SDS011;1086;51.610;6.928;2022-07-06T00:33:25;3.40;;;1.60;;
2159;SDS011;1086;51.610;6.928;2022-07-06T00:35:50;1.83;;;1.17;;
2159;SDS011;1086;51.610;6.928;2022-07-06T00:38:15;2.63;;;0.98;;
2159;SDS011;1086;51.610;6.928;2022-07-06T00:40:40;2.10;;;1.07;;
2159;SDS011;1086;51.610;6.928;2022-07-06T00:43:06;2.78;;;1.15;;
2159;SDS011;1086;51.610;6.928;2022-07-06T00:45:31;1.97;;;1.20;;
2159;SDS011;1086;51.610;6.928;2022-07-06T00:47:56;2.67;;;1.67;;
2159;SDS011;1086;51.610;6.928;2022-07-06T00:50:21;1.83;;;1.20;;
2159;SDS011;1086;51.610;6.928;2022-07-06T00:52:51;1.55;;;1.30;;
2159;SDS011;1086;51.610;6.928;2022-07-06T00:55:23;3.17;;;1.40;;
2159;SDS011;1086;51.610;6.928;2022-07-06T00:57:49;2.58;;;1.30;;
2159;SDS011;1086;51.610;6.928;2022-07-06T01:00:15;3.30;;;1.40;;
2159;SDS011;1086;51.610;6.928;2022-07-06T01:02:41;2.03;;;1.15;;
2159;SDS011;1086;51.610;6.928;2022-07-06T01:05:07;2.15;;;1.20;;
2159;SDS011;1086;51.610;6.928;2022-07-06T01:07:33;2.72;;;1.38;;
2159;SDS011;1086;51.610;6.928;2022-07-06T01:09:58;2.22;;;1.13;;
2159;SDS011;1086;51.610;6.928;2022-07-06T01:12:24;1.63;;;1.20;;
2159;SDS011;1086;51.610;6.928;2022-07-06T01:14:49;2.10;;;1.27;;
2159;SDS011;1086;51.610;6.928;2022-07-06T01:17:15;2.40;;;1.33;;
2159;SDS011;1086;51.610;6.928;2022-07-06T01:19:40;3.17;;;1.27;;
2159;SDS011;1086;51.610;6.928;2022-07-06T01:22:05;1.83;;;1.10;;
2159;SDS011;1086;51.610;6.928;2022-07-06T01:24:30;2.23;;;1.20;;
2159;SDS011;1086;51.610;6.928;2022-07-06T01:26:56;2.23;;;1.53;;
2159;SDS011;1086;51.610;6.928;2022-07-06T01:29:21;2.95;;;1.40;;
2159;SDS011;1086;51.610;6.928;2022-07-06T01:31:47;1.88;;;1.20;;
2159;SDS011;1086;51.610;6.928;2022-07-06T01:34:13;3.60;;;1.48;;
2159;SDS011;1086;51.610;6.928;2022-07-06T01:36:39;2.17;;;1.42;;
2159;SDS011;1086;51.610;6.928;2022-07-06T01:39:04;1.88;;;1.20;;
2159;SDS011;1086;51.610;6.928;2022-07-06T01:41:30;2.47;;;1.40;;
2159;SDS011;1086;51.610;6.928;2022-07-06T01:43:55;3.37;;;1.27;;
2159;SDS011;1086;51.610;6.928;2022-07-06T01:46:20;2.30;;;1.23;;
2159;SDS011;1086;51.610;6.928;2022-07-06T01:48:45;2.35;;;1.20;;
2159;SDS011;1086;51.610;6.928;2022-07-06T01:51:11;1.88;;;1.15;;
2159;SDS011;1086;51.610;6.928;2022-07-06T01:53:37;2.10;;;1.40;;
2159;SDS011;1086;51.610;6.928;2022-07-06T01:56:02;3.58;;;1.10;;
2159;SDS011;1086;51.610;6.928;2022-07-06T01:58:27;2.40;;;1.30;;
2159;SDS011;1086;51.610;6.928;2022-07-06T02:00:53;3.42;;;1.40;;
2159;SDS011;1086;51.610;6.928;2022-07-06T02:03:18;1.90;;;1.13;;
2159;SDS011;1086;51.610;6.928;2022-07-06T02:05:43;2.25;;;1.20;;
2159;SDS011;1086;51.610;6.928;2022-07-06T02:26:16;2.30;;;1.33;;
2159;SDS011;1086;51.610;6.928;2022-07-06T02:28:41;6.47;;;1.15;;
2159;SDS011;1086;51.610;6.928;2022-07-06T02:31:06;2.47;;;1.30;;
2159;SDS011;1086;51.610;6.928;2022-07-06T02:33:32;2.17;;;1.33;;
2159;SDS011;1086;51.610;6.928;2022-07-06T02:35:57;2.33;;;1.10;;
2159;SDS011;1086;51.610;6.928;2022-07-06T02:38:22;2.35;;;1.42;;
2159;SDS011;1086;51.610;6.928;2022-07-06T02:40:47;3.03;;;1.30;;
2159;SDS011;1086;51.610;6.928;2022-07-06T02:43:13;2.35;;;1.30;;
2159;SDS011;1086;51.610;6.928;2022-07-06T02:45:38;2.03;;;1.30;;
2159;SDS011;1086;51.610;6.928;2022-07-06T02:48:03;2.10;;;1.25;;
2159;SDS011;1086;51.610;6.928;2022-07-06T02:50:29;2.97;;;1.20;;
2159;SDS011;1086;51.610;6.928;2022-07-06T02:52:54;3.27;;;1.23;;
2159;SDS011;1086;51.610;6.928;2022-07-06T02:55:20;1.95;;;1.20;;
2159;SDS011;1086;51.610;6.928;2022-07-06T02:57:45;4.13;;;1.33;;
2159;SDS011;1086;51.610;6.928;2022-07-06T03:00:10;2.63;;;1.30;;
2159;SDS011;1086;51.610;6.928;2022-07-06T03:02:36;3.65;;;1.50;;
2159;SDS011;1086;51.610;6.928;2022-07-06T03:05:01;1.67;;;1.02;;
2159;SDS011;1086;51.610;6.928;2022-07-06T03:07:27;1.63;;;1.13;;
2159;SDS011;1086;51.610;6.928;2022-07-06T03:09:52;2.25;;;1.52;;
2159;SDS011;1086;51.610;6.928;2022-07-06T03:12:18;3.55;;;1.40;;
2159;SDS011;1086;51.610;6.928;2022-07-06T03:14:43;3.08;;;1.40;;
2159;SDS011;1086;51.610;6.928;2022-07-06T03:17:08;3.50;;;1.30;;
2159;SDS011;1086;51.610;6.928;2022-07-06T03:19:34;1.67;;;1.13;;
2159;SDS011;1086;51.610;6.928;2022-07-06T03:21:59;3.97;;;1.30;;
2159;SDS011;1086;51.610;6.928;2022-07-06T03:24:24;2.42;;;1.75;;
2159;SDS011;1086;51.610;6.928;2022-07-06T03:26:52;2.47;;;1.70;;
2159;SDS011;1086;51.610;6.928;2022-07-06T03:29:17;2.65;;;1.45;;
2159;SDS011;1086;51.610;6.928;2022-07-06T03:31:43;2.10;;;1.30;;
2159;SDS011;1086;51.610;6.928;2022-07-06T03:34:08;2.45;;;1.45;;
2159;SDS011;1086;51.610;6.928;2022-07-06T03:36:33;1.83;;;1.38;;
2159;SDS011;1086;51.610;6.928;2022-07-06T03:38:59;2.80;;;1.40;;
2159;SDS011;1086;51.610;6.928;2022-07-06T03:41:24;3.67;;;1.60;;
2159;SDS011;1086;51.610;6.928;2022-07-06T03:43:49;3.40;;;1.52;;
2159;SDS011;1086;51.610;6.928;2022-07-06T03:59:37;2.38;;;1.42;;
2159;SDS011;1086;51.610;6.928;2022-07-06T04:02:02;3.20;;;1.70;;
2159;SDS011;1086;51.610;6.928;2022-07-06T04:04:28;5.63;;;2.05;;
2159;SDS011;1086;51.610;6.928;2022-07-06T04:06:53;3.63;;;1.30;;
2159;SDS011;1086;51.610;6.928;2022-07-06T04:09:18;2.73;;;1.50;;
2159;SDS011;1086;51.610;6.928;2022-07-06T04:11:44;2.00;;;1.42;;
2159;SDS011;1086;51.610;6.928;2022-07-06T04:14:09;3.53;;;1.17;;
2159;SDS011;1086;51.610;6.928;2022-07-06T04:16:34;2.97;;;1.20;;
2159;SDS011;1086;51.610;6.928;2022-07-06T04:18:59;3.53;;;1.05;;
2159;SDS011;1086;51.610;6.928;2022-07-06T04:21:25;2.60;;;1.20;;
2159;SDS011;1086;51.610;6.928;2022-07-06T04:23:50;4.32;;;1.30;;
2159;SDS011;1086;51.610;6.928;2022-07-06T04:26:15;2.17;;;1.00;;
2159;SDS011;1086;51.610;6.928;2022-07-06T04:28:40;3.22;;;1.15;;
2159;SDS011;1086;51.610;6.928;2022-07-06T04:31:06;2.23;;;1.20;;
2159;SDS011;1086;51.610;6.928;2022-07-06T04:33:31;2.00;;;1.30;;
2159;SDS011;1086;51.610;6.928;2022-07-06T04:35:56;2.13;;;1.20;;
2159;SDS011;1086;51.610;6.928;2022-07-06T04:38:21;6.60;;;1.60;;
2159;SDS011;1086;51.610;6.928;2022-07-06T04:40:47;1.77;;;1.37;;
2159;SDS011;1086;51.610;6.928;2022-07-06T04:43:12;2.90;;;1.20;;
2159;SDS011;1086;51.610;6.928;2022-07-06T04:45:37;4.38;;;1.42;;
2159;SDS011;1086;51.610;6.928;2022-07-06T04:48:03;3.97;;;1.53;;
2159;SDS011;1086;51.610;6.928;2022-07-06T04:50:28;3.03;;;1.45;;
2159;SDS011;1086;51.610;6.928;2022-07-06T04:52:53;3.40;;;1.10;;
2159;SDS011;1086;51.610;6.928;2022-07-06T04:55:19;4.00;;;1.40;;
2159;SDS011;1086;51.610;6.928;2022-07-06T04:57:44;2.20;;;1.10;;
2159;SDS011;1086;51.610;6.928;2022-07-06T05:00:09;3.15;;;1.30;;
2159;SDS011;1086;51.610;6.928;2022-07-06T05:02:35;3.10;;;1.13;;
2159;SDS011;1086;51.610;6.928;2022-07-06T05:05:00;2.05;;;0.88;;
2159;SDS011;1086;51.610;6.928;2022-07-06T05:07:25;2.67;;;1.00;;
2159;SDS011;1086;51.610;6.928;2022-07-06T05:09:55;2.28;;;1.20;;
2159;SDS011;1086;51.610;6.928;2022-07-06T05:12:20;3.53;;;1.33;;
2159;SDS011;1086;51.610;6.928;2022-07-06T05:14:45;2.60;;;1.27;;
2159;SDS011;1086;51.610;6.928;2022-07-06T05:17:11;7.23;;;1.50;;
2159;SDS011;1086;51.610;6.928;2022-07-06T05:19:36;2.43;;;1.13;;
2159;SDS011;1086;51.610;6.928;2022-07-06T05:22:01;1.93;;;1.13;;
2159;SDS011;1086;51.610;6.928;2022-07-06T05:24:26;2.05;;;1.30;;
2159;SDS011;1086;51.610;6.928;2022-07-06T05:26:52;5.30;;;1.30;;
2159;SDS011;1086;51.610;6.928;2022-07-06T05:29:17;2.60;;;1.23;;
2159;SDS011;1086;51.610;6.928;2022-07-06T05:31:42;1.37;;;1.10;;
2159;SDS011;1086;51.610;6.928;2022-07-06T05:34:07;5.73;;;1.70;;
2159;SDS011;1086;51.610;6.928;2022-07-06T05:36:32;1.63;;;1.00;;
2159;SDS011;1086;51.610;6.928;2022-07-06T05:38:58;2.23;;;1.07;;
2159;SDS011;1086;51.610;6.928;2022-07-06T05:41:23;1.08;;;0.60;;
2159;SDS011;1086;51.610;6.928;2022-07-06T05:43:48;2.23;;;0.93;;
2159;SDS011;1086;51.610;6.928;2022-07-06T05:46:13;3.03;;;1.13;;
2159;SDS011;1086;51.610;6.928;2022-07-06T05:48:39;1.33;;;0.80;;
2159;SDS011;1086;51.610;6.928;2022-07-06T05:51:23;1.63;;;1.10;;
2159;SDS011;1086;51.610;6.928;2022-07-06T05:53:50;1.85;;;0.85;;
2159;SDS011;1086;51.610;6.928;2022-07-06T05:56:16;2.50;;;0.80;;
2159;SDS011;1086;51.610;6.928;2022-07-06T05:58:41;1.67;;;0.70;;
2159;SDS011;1086;51.610;6.928;2022-07-06T06:01:06;1.67;;;0.73;;
2159;SDS011;1086;51.610;6.928;2022-07-06T06:03:32;1.05;;;0.65;;
2159;SDS011;1086;51.610;6.928;2022-07-06T06:05:57;1.60;;;0.80;;
2159;SDS011;1086;51.610;6.928;2022-07-06T06:08:22;4.97;;;0.83;;
2159;SDS011;1086;51.610;6.928;2022-07-06T06:10:48;3.70;;;0.90;;
2159;SDS011;1086;51.610;6.928;2022-07-06T06:13:13;1.30;;;0.67;;
2159;SDS011;1086;51.610;6.928;2022-07-06T06:15:38;3.13;;;1.00;;
2159;SDS011;1086;51.610;6.928;2022-07-06T06:18:04;1.08;;;0.60;;
2159;SDS011;1086;51.610;6.928;2022-07-06T06:20:29;2.57;;;0.70;;
2159;SDS011;1086;51.610;6.928;2022-07-06T06:22:55;1.92;;;0.60;;
2159;SDS011;1086;51.610;6.928;2022-07-06T06:25:26;3.42;;;1.00;;
2159;SDS011;1086;51.610;6.928;2022-07-06T06:27:52;4.70;;;1.00;;
2159;SDS011;1086;51.610;6.928;2022-07-06T06:30:17;5.20;;;0.60;;
2159;SDS011;1086;51.610;6.928;2022-07-06T06:32:42;0.47;;;0.40;;
2159;SDS011;1086;51.610;6.928;2022-07-06T06:35:08;0.40;;;0.38;;
2159;SDS011;1086;51.610;6.928;2022-07-06T06:37:33;0.35;;;0.30;;
2159;SDS011;1086;51.610;6.928;2022-07-06T06:39:59;1.75;;;0.45;;
2159;SDS011;1086;51.610;6.928;2022-07-06T06:42:24;5.25;;;0.80;;
2159;SDS011;1086;51.610;6.928;2022-07-06T06:44:49;1.03;;;0.60;;
2159;SDS011;1086;51.610;6.928;2022-07-06T06:47:15;1.77;;;0.60;;
2159;SDS011;1086;51.610;6.928;2022-07-06T06:49:40;3.50;;;0.50;;
2159;SDS011;1086;51.610;6.928;2022-07-06T06:52:05;3.58;;;0.50;;
2159;SDS011;1086;51.610;6.928;2022-07-06T06:54:31;1.23;;;0.45;;
2159;SDS011;1086;51.610;6.928;2022-07-06T06:56:56;1.10;;;0.50;;
2159;SDS011;1086;51.610;6.928;2022-07-06T06:59:21;0.63;;;0.50;;
2159;SDS011;1086;51.610;6.928;2022-07-06T07:01:46;0.82;;;0.30;;
2159;SDS011;1086;51.610;6.928;2022-07-06T07:04:12;3.17;;;0.47;;
2159;SDS011;1086;51.610;6.928;2022-07-06T07:06:37;1.98;;;0.50;;
2159;SDS011;1086;51.610;6.928;2022-07-06T07:09:03;0.65;;;0.45;;
2159;SDS011;1086;51.610;6.928;2022-07-06T07:11:28;4.95;;;0.70;;
2159;SDS011;1086;51.610;6.928;2022-07-06T07:13:53;0.80;;;0.40;;
2159;SDS011;1086;51.610;6.928;2022-07-06T07:16:18;3.63;;;0.67;;
2159;SDS011;1086;51.610;6.928;2022-07-06T07:18:44;2.28;;;0.55;;
2159;SDS011;1086;51.610;6.928;2022-07-06T07:21:09;3.70;;;0.60;;
2159;SDS011;1086;51.610;6.928;2022-07-06T07:23:35;0.53;;;0.40;;
2159;SDS011;1086;51.610;6.928;2022-07-06T07:26:00;2.95;;;0.65;;
2159;SDS011;1086;51.610;6.928;2022-07-06T07:28:25;3.58;;;0.40;;
2159;SDS011;1086;51.610;6.928;2022-07-06T07:30:51;1.67;;;0.77;;
2159;SDS011;1086;51.610;6.928;2022-07-06T07:33:19;0.98;;;0.25;;
2159;SDS011;1086;51.610;6.928;2022-07-06T07:35:44;1.07;;;0.30;;
2159;SDS011;1086;51.610;6.928;2022-07-06T07:38:09;2.90;;;0.60;;
2159;SDS011;1086;51.610;6.928;2022-07-06T07:40:35;1.13;;;0.38;;
2159;SDS011;1086;51.610;6.928;2022-07-06T07:43:00;0.38;;;0.30;;
2159;SDS011;1086;51.610;6.928;2022-07-06T07:45:26;2.83;;;0.38;;
2159;SDS011;1086;51.610;6.928;2022-07-06T07:47:51;3.13;;;0.50;;
2159;SDS011;1086;51.610;6.928;2022-07-06T07:50:16;1.63;;;0.30;;
2159;SDS011;1086;51.610;6.928;2022-07-06T07:52:43;0.57;;;0.57;;
2159;SDS011;1086;51.610;6.928;2022-07-06T07:55:08;0.37;;;0.33;;
2159;SDS011;1086;51.610;6.928;2022-07-06T07:57:33;0.47;;;0.30;;
2159;SDS011;1086;51.610;6.928;2022-07-06T07:59:59;1.23;;;0.40;;
2159;SDS011;1086;51.610;6.928;2022-07-06T08:02:24;0.40;;;0.30;;
2159;SDS011;1086;51.610;6.928;2022-07-06T08:04:49;1.80;;;0.97;;
2159;SDS011;1086;51.610;6.928;2022-07-06T08:07:14;3.07;;;0.50;;
2159;SDS011;1086;51.610;6.928;2022-07-06T08:09:39;0.70;;;0.33;;
2159;SDS011;1086;51.610;6.928;2022-07-06T08:12:05;0.70;;;0.63;;
2159;SDS011;1086;51.610;6.928;2022-07-06T08:14:30;0.57;;;0.30;;
2159;SDS011;1086;51.610;6.928;2022-07-06T08:16:56;1.15;;;0.40;;
2159;SDS011;1086;51.610;6.928;2022-07-06T08:19:21;1.10;;;0.35;;
2159;SDS011;1086;51.610;6.928;2022-07-06T08:21:47;1.53;;;0.50;;
2159;SDS011;1086;51.610;6.928;2022-07-06T08:24:12;0.90;;;0.50;;
2159;SDS011;1086;51.610;6.928;2022-07-06T08:26:37;1.90;;;0.40;;
2159;SDS011;1086;51.610;6.928;2022-07-06T08:29:03;0.60;;;0.20;;
2159;SDS011;1086;51.610;6.928;2022-07-06T08:31:28;2.15;;;0.40;;
2159;SDS011;1086;51.610;6.928;2022-07-06T08:33:53;0.85;;;0.30;;
2159;SDS011;1086;51.610;6.928;2022-07-06T08:36:22;0.98;;;0.40;;
2159;SDS011;1086;51.610;6.928;2022-07-06T08:38:47;2.20;;;0.50;;
2159;SDS011;1086;51.610;6.928;2022-07-06T08:41:13;1.90;;;0.50;;
2159;SDS011;1086;51.610;6.928;2022-07-06T08:43:39;0.35;;;0.30;;
2159;SDS011;1086;51.610;6.928;2022-07-06T08:46:04;1.33;;;0.57;;
2159;SDS011;1086;51.610;6.928;2022-07-06T08:48:31;1.13;;;0.30;;
2159;SDS011;1086;51.610;6.928;2022-07-06T08:51:00;1.08;;;0.30;;
2159;SDS011;1086;51.610;6.928;2022-07-06T08:53:25;0.77;;;0.30;;
2159;SDS011;1086;51.610;6.928;2022-07-06T08:55:50;1.00;;;0.50;;
2159;SDS011;1086;51.610;6.928;2022-07-06T08:58:16;0.98;;;0.47;;
2159;SDS011;1086;51.610;6.928;2022-07-06T09:00:41;3.50;;;0.57;;
2159;SDS011;1086;51.610;6.928;2022-07-06T09:03:07;0.82;;;0.38;;
2159;SDS011;1086;51.610;6.928;2022-07-06T09:05:33;1.50;;;0.40;;
2159;SDS011;1086;51.610;6.928;2022-07-06T09:07:59;0.68;;;0.50;;
2159;SDS011;1086;51.610;6.928;2022-07-06T09:10:25;3.83;;;0.50;;
2159;SDS011;1086;51.610;6.928;2022-07-06T09:12:51;0.38;;;0.20;;
2159;SDS011;1086;51.610;6.928;2022-07-06T09:15:16;0.85;;;0.50;;
2159;SDS011;1086;51.610;6.928;2022-07-06T09:17:42;1.65;;;0.45;;
2159;SDS011;1086;51.610;6.928;2022-07-06T09:20:08;1.02;;;0.52;;
2159;SDS011;1086;51.610;6.928;2022-07-06T09:22:34;0.75;;;0.22;;
2159;SDS011;1086;51.610;6.928;2022-07-06T09:25:06;1.23;;;0.43;;
2159;SDS011;1086;51.610;6.928;2022-07-06T09:27:39;3.97;;;1.23;;
2159;SDS011;1086;51.610;6.928;2022-07-06T09:30:06;1.35;;;0.50;;
2159;SDS011;1086;51.610;6.928;2022-07-06T09:32:32;1.85;;;0.60;;
2159;SDS011;1086;51.610;6.928;2022-07-06T09:37:28;1.00;;;0.40;;
2159;SDS011;1086;51.610;6.928;2022-07-06T09:39:56;0.63;;;0.40;;
2159;SDS011;1086;51.610;6.928;2022-07-06T09:42:24;3.93;;;0.40;;
2159;SDS011;1086;51.610;6.928;2022-07-06T09:44:49;3.10;;;0.65;;
2159;SDS011;1086;51.610;6.928;2022-07-06T09:47:14;1.15;;;0.40;;
2159;SDS011;1086;51.610;6.928;2022-07-06T09:49:40;2.40;;;0.55;;
2159;SDS011;1086;51.610;6.928;2022-07-06T09:52:09;1.92;;;0.40;;
2159;SDS011;1086;51.610;6.928;2022-07-06T09:54:35;0.63;;;0.30;;
2159;SDS011;1086;51.610;6.928;2022-07-06T09:57:04;1.20;;;0.50;;
2159;SDS011;1086;51.610;6.928;2022-07-06T09:59:30;3.13;;;0.30;;
2159;SDS011;1086;51.610;6.928;2022-07-06T10:01:57;2.22;;;0.30;;
2159;SDS011;1086;51.610;6.928;2022-07-06T10:04:23;1.85;;;0.60;;
2159;SDS011;1086;51.610;6.928;2022-07-06T10:06:48;0.38;;;0.17;;
2159;SDS011;1086;51.610;6.928;2022-07-06T10:09:14;0.38;;;0.35;;
2159;SDS011;1086;51.610;6.928;2022-07-06T10:11:42;1.15;;;0.40;;
2159;SDS011;1086;51.610;6.928;2022-07-06T10:14:07;1.20;;;0.47;;
2159;SDS011;1086;51.610;6.928;2022-07-06T10:16:36;0.82;;;0.52;;
2159;SDS011;1086;51.610;6.928;2022-07-06T10:19:04;0.80;;;0.30;;
2159;SDS011;1086;51.610;6.928;2022-07-06T10:21:33;1.38;;;0.40;;
2159;SDS011;1086;51.610;6.928;2022-07-06T10:23:58;1.48;;;0.50;;
2159;SDS011;1086;51.610;6.928;2022-07-06T10:26:25;0.43;;;0.30;;
2159;SDS011;1086;51.610;6.928;2022-07-06T10:28:50;1.20;;;0.38;;
2159;SDS011;1086;51.610;6.928;2022-07-06T10:31:16;1.17;;;0.40;;
2159;SDS011;1086;51.610;6.928;2022-07-06T10:33:42;0.85;;;0.40;;
2159;SDS011;1086;51.610;6.928;2022-07-06T10:36:08;1.58;;;0.50;;
2159;SDS011;1086;51.610;6.928;2022-07-06T10:38:34;1.60;;;0.43;;
2159;SDS011;1086;51.610;6.928;2022-07-06T10:41:18;1.00;;;0.30;;
2159;SDS011;1086;51.610;6.928;2022-07-06T10:43:48;1.45;;;0.30;;
2159;SDS011;1086;51.610;6.928;2022-07-06T10:46:15;1.10;;;0.30;;
2159;SDS011;1086;51.610;6.928;2022-07-06T10:48:42;1.27;;;0.30;;
2159;SDS011;1086;51.610;6.928;2022-07-06T10:51:08;0.55;;;0.25;;
2159;SDS011;1086;51.610;6.928;2022-07-06T10:53:34;2.22;;;0.40;;
2159;SDS011;1086;51.610;6.928;2022-07-06T10:56:00;0.88;;;0.40;;
2159;SDS011;1086;51.610;6.928;2022-07-06T10:58:39;1.38;;;0.30;;
2159;SDS011;1086;51.610;6.928;2022-07-06T11:03:33;0.50;;;0.27;;
2159;SDS011;1086;51.610;6.928;2022-07-06T11:06:05;1.27;;;0.43;;
2159;SDS011;1086;51.610;6.928;2022-07-06T11:13:50;0.30;;;0.28;;
2159;SDS011;1086;51.610;6.928;2022-07-06T11:16:16;1.55;;;0.50;;
2159;SDS011;1086;51.610;6.928;2022-07-06T11:18:45;2.28;;;0.50;;
2159;SDS011;1086;51.610;6.928;2022-07-06T11:26:07;2.50;;;0.70;;
2159;SDS011;1086;51.610;6.928;2022-07-06T11:28:33;1.00;;;0.40;;
2159;SDS011;1086;51.610;6.928;2022-07-06T11:31:01;0.63;;;0.38;;
2159;SDS011;1086;51.610;6.928;2022-07-06T11:33:30;1.50;;;0.37;;
2159;SDS011;1086;51.610;6.928;2022-07-06T11:38:57;2.05;;;0.50;;
2159;SDS011;1086;51.610;6.928;2022-07-06T11:41:22;2.60;;;0.50;;
2159;SDS011;1086;51.610;6.928;2022-07-06T11:43:47;1.73;;;0.70;;
2159;SDS011;1086;51.610;6.928;2022-07-06T11:48:51;1.27;;;0.35;;
2159;SDS011;1086;51.610;6.928;2022-07-06T11:51:16;0.77;;;0.43;;
2159;SDS011;1086;51.610;6.928;2022-07-06T11:53:49;0.90;;;0.40;;
2159;SDS011;1086;51.610;6.928;2022-07-06T11:56:15;2.60;;;0.47;;
2159;SDS011;1086;51.610;6.928;2022-07-06T11:58:40;2.25;;;0.40;;
2159;SDS011;1086;51.610;6.928;2022-07-06T12:01:08;1.05;;;0.50;;
2159;SDS011;1086;51.610;6.928;2022-07-06T12:03:33;0.68;;;0.30;;
2159;SDS011;1086;51.610;6.928;2022-07-06T12:06:00;2.55;;;0.50;;
2159;SDS011;1086;51.610;6.928;2022-07-06T12:08:26;1.02;;;0.60;;
2159;SDS011;1086;51.610;6.928;2022-07-06T12:10:51;0.70;;;0.40;;
2159;SDS011;1086;51.610;6.928;2022-07-06T12:13:18;1.40;;;0.40;;
2159;SDS011;1086;51.610;6.928;2022-07-06T12:15:43;1.08;;;0.50;;
2159;SDS011;1086;51.610;6.928;2022-07-06T12:18:08;1.40;;;0.70;;
2159;SDS011;1086;51.610;6.928;2022-07-06T12:20:33;0.50;;;0.30;;
2159;SDS011;1086;51.610;6.928;2022-07-06T12:23:02;1.83;;;0.47;;
2159;SDS011;1086;51.610;6.928;2022-07-06T12:25:31;4.32;;;0.73;;
2159;SDS011;1086;51.610;6.928;2022-07-06T12:27:57;0.68;;;0.45;;
2159;SDS011;1086;51.610;6.928;2022-07-06T12:30:22;0.57;;;0.40;;
2159;SDS011;1086;51.610;6.928;2022-07-06T12:33:09;1.03;;;0.40;;
2159;SDS011;1086;51.610;6.928;2022-07-06T12:35:33;0.40;;;0.32;;
2159;SDS011;1086;51.610;6.928;2022-07-06T12:37:58;0.40;;;0.40;;
2159;SDS011;1086;51.610;6.928;2022-07-06T12:40:25;1.13;;;0.30;;
2159;SDS011;1086;51.610;6.928;2022-07-06T12:42:52;2.15;;;0.45;;
2159;SDS011;1086;51.610;6.928;2022-07-06T12:45:17;0.60;;;0.30;;
2159;SDS011;1086;51.610;6.928;2022-07-06T12:47:56;2.00;;;0.50;;
2159;SDS011;1086;51.610;6.928;2022-07-06T12:50:21;1.45;;;0.50;;
2159;SDS011;1086;51.610;6.928;2022-07-06T12:52:54;3.47;;;0.40;;
2159;SDS011;1086;51.610;6.928;2022-07-06T12:55:24;0.45;;;0.30;;
2159;SDS011;1086;51.610;6.928;2022-07-06T12:57:50;0.60;;;0.45;;
2159;SDS011;1086;51.610;6.928;2022-07-06T13:00:17;0.82;;;0.50;;
2159;SDS011;1086;51.610;6.928;2022-07-06T13:02:46;1.33;;;0.40;;
2159;SDS011;1086;51.610;6.928;2022-07-06T13:05:13;1.10;;;0.30;;
2159;SDS011;1086;51.610;6.928;2022-07-06T13:07:43;2.35;;;0.32;;
2159;SDS011;1086;51.610;6.928;2022-07-06T13:10:09;0.95;;;0.52;;
2159;SDS011;1086;51.610;6.928;2022-07-06T13:12:35;0.30;;;0.20;;
2159;SDS011;1086;51.610;6.928;2022-07-06T13:15:00;1.50;;;0.30;;
2159;SDS011;1086;51.610;6.928;2022-07-06T13:17:25;1.50;;;0.40;;
2159;SDS011;1086;51.610;6.928;2022-07-06T13:19:51;1.60;;;0.20;;
2159;SDS011;1086;51.610;6.928;2022-07-06T13:22:16;1.13;;;0.88;;
2159;SDS011;1086;51.610;6.928;2022-07-06T13:24:42;1.30;;;0.50;;
2159;SDS011;1086;51.610;6.928;2022-07-06T13:27:07;1.13;;;0.38;;
2159;SDS011;1086;51.610;6.928;2022-07-06T13:29:32;0.90;;;0.40;;
2159;SDS011;1086;51.610;6.928;2022-07-06T13:31:58;0.85;;;0.45;;
2159;SDS011;1086;51.610;6.928;2022-07-06T13:34:23;1.20;;;0.30;;
2159;SDS011;1086;51.610;6.928;2022-07-06T13:36:49;0.60;;;0.40;;
2159;SDS011;1086;51.610;6.928;2022-07-06T13:39:15;1.33;;;0.38;;
2159;SDS011;1086;51.610;6.928;2022-07-06T13:41:41;0.95;;;0.30;;
2159;SDS011;1086;51.610;6.928;2022-07-06T13:44:06;1.05;;;0.30;;
2159;SDS011;1086;51.610;6.928;2022-07-06T13:46:32;0.70;;;0.28;;
2159;SDS011;1086;51.610;6.928;2022-07-06T13:48:57;1.38;;;0.40;;
2159;SDS011;1086;51.610;6.928;2022-07-06T13:51:24;0.32;;;0.30;;
2159;SDS011;1086;51.610;6.928;2022-07-06T13:53:50;0.45;;;0.38;;
2159;SDS011;1086;51.610;6.928;2022-07-06T13:56:15;1.95;;;0.40;;
2159;SDS011;1086;51.610;6.928;2022-07-06T13:58:41;1.35;;;0.40;;
2159;SDS011;1086;51.610;6.928;2022-07-06T14:01:07;0.55;;;0.35;;
2159;SDS011;1086;51.610;6.928;2022-07-06T14:03:32;1.40;;;0.40;;
2159;SDS011;1086;51.610;6.928;2022-07-06T14:05:58;0.73;;;0.20;;
2159;SDS011;1086;51.610;6.928;2022-07-06T14:08:24;0.35;;;0.25;;
2159;SDS011;1086;51.610;6.928;2022-07-06T14:10:50;2.03;;;0.40;;
2159;SDS011;1086;51.610;6.928;2022-07-06T14:13:15;0.53;;;0.30;;
2159;SDS011;1086;51.610;6.928;2022-07-06T14:15:40;0.73;;;0.50;;
2159;SDS011;1086;51.610;6.928;2022-07-06T14:18:05;1.70;;;0.27;;
2159;SDS011;1086;51.610;6.928;2022-07-06T14:20:31;1.50;;;0.30;;
2159;SDS011;1086;51.610;6.928;2022-07-06T14:22:56;3.13;;;0.40;;
2159;SDS011;1086;51.610;6.928;2022-07-06T14:25:21;0.63;;;0.30;;
2159;SDS011;1086;51.610;6.928;2022-07-06T14:27:47;0.30;;;0.30;;
2159;SDS011;1086;51.610;6.928;2022-07-06T14:30:12;0.40;;;0.30;;
2159;SDS011;1086;51.610;6.928;2022-07-06T14:32:37;1.50;;;0.47;;
2159;SDS011;1086;51.610;6.928;2022-07-06T14:35:03;0.75;;;0.20;;
2159;SDS011;1086;51.610;6.928;2022-07-06T14:37:28;0.30;;;0.20;;
2159;SDS011;1086;51.610;6.928;2022-07-06T14:39:53;1.55;;;0.40;;
2159;SDS011;1086;51.610;6.928;2022-07-06T14:42:19;0.60;;;0.30;;
2159;SDS011;1086;51.610;6.928;2022-07-06T14:44:44;3.13;;;0.40;;
2159;SDS011;1086;51.610;6.928;2022-07-06T14:47:10;4.13;;;0.40;;
2159;SDS011;1086;51.610;6.928;2022-07-06T14:49:35;1.77;;;0.35;;
2159;SDS011;1086;51.610;6.928;2022-07-06T14:52:00;0.52;;;0.20;;
2159;SDS011;1086;51.610;6.928;2022-07-06T14:54:25;0.40;;;0.20;;
2159;SDS011;1086;51.610;6.928;2022-07-06T14:56:51;1.35;;;0.65;;
2159;SDS011;1086;51.610;6.928;2022-07-06T14:59:17;1.05;;;0.30;;
2159;SDS011;1086;51.610;6.928;2022-07-06T15:01:42;0.20;;;0.20;;
2159;SDS011;1086;51.610;6.928;2022-07-06T15:04:07;0.43;;;0.30;;
2159;SDS011;1086;51.610;6.928;2022-07-06T15:06:33;1.55;;;0.40;;
2159;SDS011;1086;51.610;6.928;2022-07-06T15:08:58;0.57;;;0.30;;
2159;SDS011;1086;51.610;6.928;2022-07-06T15:11:26;0.50;;;0.20;;
2159;SDS011;1086;51.610;6.928;2022-07-06T15:13:51;0.85;;;0.30;;
2159;SDS011;1086;51.610;6.928;2022-07-06T15:16:16;1.23;;;0.60;;
2159;SDS011;1086;51.610;6.928;2022-07-06T15:18:41;1.67;;;0.50;;
2159;SDS011;1086;51.610;6.928;2022-07-06T15:21:06;3.70;;;0.60;;
2159;SDS011;1086;51.610;6.928;2022-07-06T15:23:34;1.27;;;0.50;;
2159;SDS011;1086;51.610;6.928;2022-07-06T15:25:59;1.07;;;0.40;;
2159;SDS011;1086;51.610;6.928;2022-07-06T15:28:26;0.70;;;0.40;;
2159;SDS011;1086;51.610;6.928;2022-07-06T15:30:52;0.87;;;0.40;;
2159;SDS011;1086;51.610;6.928;2022-07-06T15:33:17;2.13;;;0.40;;
2159;SDS011;1086;51.610;6.928;2022-07-06T15:35:42;0.83;;;0.40;;
2159;SDS011;1086;51.610;6.928;2022-07-06T15:38:09;0.38;;;0.30;;
2159;SDS011;1086;51.610;6.928;2022-07-06T15:40:34;2.23;;;0.50;;
2159;SDS011;1086;51.610;6.928;2022-07-06T15:43:05;1.48;;;0.50;;
2159;SDS011;1086;51.610;6.928;2022-07-06T15:45:30;0.47;;;0.30;;
2159;SDS011;1086;51.610;6.928;2022-07-06T15:47:55;2.07;;;0.40;;
2159;SDS011;1086;51.610;6.928;2022-07-06T15:50:20;0.85;;;0.40;;
2159;SDS011;1086;51.610;6.928;2022-07-06T15:52:46;0.70;;;0.40;;
2159;SDS011;1086;51.610;6.928;2022-07-06T15:55:11;3.75;;;0.50;;
2159;SDS011;1086;51.610;6.928;2022-07-06T15:57:36;2.35;;;0.50;;
2159;SDS011;1086;51.610;6.928;2022-07-06T16:00:02;2.23;;;0.50;;